createdAt,value
2019-04-01T00:02:02.518Z,0.91
2019-04-01T00:07:11.559Z,1.06
2019-04-01T00:12:20.659Z,1.05
2019-04-01T00:17:29.731Z,0.84
2019-04-01T00:22:38.905Z,0.97
2019-04-01T00:27:47.848Z,0.73
2019-04-01T00:32:57.039Z,0.84
2019-04-01T00:38:06.213Z,0.74
2019-04-01T00:43:15.232Z,0.69
2019-04-01T00:48:24.246Z,0.70
2019-04-01T00:53:33.383Z,0.70
2019-04-01T00:58:42.467Z,0.82
2019-04-01T01:03:55.225Z,0.82
2019-04-01T01:08:54.211Z,0.83
2019-04-01T01:14:03.321Z,0.83
2019-04-01T01:19:12.463Z,0.66
2019-04-01T01:24:21.598Z,0.70
2019-04-01T01:29:30.675Z,0.74
2019-04-01T01:34:39.809Z,0.64
2019-04-01T01:39:48.897Z,0.87
2019-04-01T01:44:58.058Z,0.75
2019-04-01T01:50:07.119Z,0.59
2019-04-01T01:55:16.636Z,0.76
2019-04-01T02:00:25.607Z,0.65
2019-04-01T02:05:34.792Z,0.79
2019-04-01T02:10:43.917Z,0.86
2019-04-01T02:15:53.001Z,0.68
2019-04-01T02:21:02.087Z,0.73
2019-04-01T02:26:11.362Z,0.59
2019-04-01T02:31:20.366Z,0.65
2019-04-01T02:36:29.702Z,0.50
2019-04-01T02:41:38.751Z,0.65
2019-04-01T02:46:47.849Z,0.71
2019-04-01T02:51:56.982Z,0.57
2019-04-01T02:57:06.204Z,0.82
2019-04-01T03:02:15.235Z,0.83
2019-04-01T03:07:24.335Z,0.77
2019-04-01T03:12:33.360Z,0.73
2019-04-01T03:17:42.496Z,0.61
2019-04-01T03:22:51.715Z,0.69
2019-04-01T03:28:00.818Z,0.59
2019-04-01T03:33:09.884Z,0.65
2019-04-01T03:38:19.011Z,0.72
2019-04-01T03:43:28.057Z,0.74
2019-04-01T03:48:37.241Z,0.70
2019-04-01T03:53:46.270Z,0.68
2019-04-01T03:58:55.418Z,0.64
2019-04-01T04:04:04.497Z,0.65
2019-04-01T04:09:13.669Z,0.86
2019-04-01T04:14:23.410Z,0.88
2019-04-01T04:19:32.540Z,0.90
2019-04-01T04:24:41.605Z,0.74
2019-04-01T04:29:50.753Z,0.78
2019-04-01T04:34:59.830Z,0.95
2019-04-01T04:40:08.969Z,0.66
2019-04-01T04:45:18.042Z,0.81
2019-04-01T04:50:27.774Z,0.84
2019-04-01T04:55:36.852Z,0.98
2019-04-01T05:00:46.001Z,0.96
2019-04-01T05:05:55.003Z,0.91
2019-04-01T05:11:04.126Z,1.03
2019-04-01T05:16:13.177Z,0.89
2019-04-01T05:21:22.415Z,0.87
2019-04-01T05:26:31.477Z,0.82
2019-04-01T05:31:40.605Z,0.94
2019-04-01T05:36:49.666Z,0.95
2019-04-01T05:41:58.781Z,1.01
2019-04-01T05:47:07.815Z,0.82
2019-04-01T05:52:16.961Z,1.03
2019-04-01T05:57:26.050Z,0.98
2019-04-01T06:02:35.318Z,0.90
2019-04-01T06:07:44.453Z,1.02
2019-04-01T06:12:53.622Z,1.06
2019-04-01T06:18:02.639Z,1.06
2019-04-01T06:23:15.878Z,1.26
2019-04-01T06:28:14.894Z,1.36
2019-04-01T06:33:24.529Z,1.01
2019-04-01T06:38:33.602Z,1.25
2019-04-01T06:43:42.757Z,1.24
2019-04-01T06:48:51.929Z,1.20
2019-04-01T06:54:01.285Z,1.14
2019-04-01T06:59:10.367Z,1.48
2019-04-01T07:04:19.510Z,1.47
2019-04-01T07:09:28.530Z,1.48
2019-04-01T07:14:37.666Z,1.25
2019-04-01T07:19:46.930Z,1.55
2019-04-01T07:24:56.037Z,1.36
2019-04-01T07:30:05.085Z,1.56
2019-04-01T07:35:14.209Z,1.48
2019-04-01T07:40:23.286Z,1.22
2019-04-01T07:45:32.485Z,1.70
2019-04-01T07:50:41.690Z,1.62
2019-04-01T07:55:50.702Z,1.73
2019-04-01T08:00:59.778Z,1.84
2019-04-01T08:06:09.085Z,1.64
2019-04-01T08:11:18.163Z,1.76
2019-04-01T08:16:27.347Z,1.53
2019-04-01T08:21:36.433Z,1.94
2019-04-01T08:26:45.600Z,1.69
2019-04-01T08:31:54.603Z,2.11
2019-04-01T08:37:04.138Z,2.01
2019-04-01T08:42:13.126Z,1.76
2019-04-01T08:47:22.467Z,1.61
2019-04-01T08:52:31.510Z,1.89
2019-04-01T08:57:40.699Z,1.76
2019-04-01T09:02:49.777Z,1.66
2019-04-01T09:07:58.899Z,1.77
2019-04-01T09:13:08.130Z,2.04
2019-04-01T09:18:17.253Z,1.84
2019-04-01T09:23:26.561Z,1.99
2019-04-01T09:28:35.794Z,1.96
2019-04-01T09:33:44.854Z,2.23
2019-04-01T09:38:54.023Z,2.07
2019-04-01T09:44:03.083Z,2.32
2019-04-01T09:49:12.388Z,2.24
2019-04-01T09:54:21.458Z,2.17
2019-04-01T09:59:30.589Z,2.50
2019-04-01T10:04:55.126Z,2.35
2019-04-01T10:09:44.221Z,2.57
2019-04-01T10:14:53.305Z,3.26
2019-04-01T10:20:02.548Z,3.34
2019-04-01T10:25:11.587Z,3.10
2019-04-01T10:30:20.708Z,3.38
2019-04-01T10:35:29.809Z,3.73
2019-04-01T10:40:39.744Z,3.17
2019-04-01T10:45:48.913Z,3.05
2019-04-01T10:50:58.330Z,2.65
2019-04-01T10:56:07.537Z,2.63
2019-04-01T11:01:20.160Z,2.98
2019-04-01T11:06:19.115Z,3.11
2019-04-01T11:11:28.336Z,3.09
2019-04-01T11:16:37.402Z,3.37
2019-04-01T11:21:46.530Z,3.55
2019-04-01T11:26:55.614Z,3.22
2019-04-01T11:32:04.816Z,3.46
2019-04-01T11:37:13.897Z,3.59
2019-04-01T11:42:23.174Z,3.69
2019-04-01T11:47:31.780Z,3.55
2019-04-01T11:52:41.013Z,3.41
2019-04-01T11:57:50.004Z,3.50
2019-04-01T12:02:59.181Z,3.23
2019-04-01T12:08:08.662Z,4.17
2019-04-01T12:13:17.762Z,4.39
2019-04-01T12:18:27.299Z,3.58
2019-04-01T12:23:36.521Z,3.69
2019-04-01T12:28:45.588Z,3.96
2019-04-01T12:33:54.738Z,4.49
2019-04-01T12:39:03.810Z,3.86
2019-04-01T12:44:13.017Z,3.99
2019-04-01T12:49:56.162Z,4.04
2019-04-01T12:55:05.223Z,3.79
2019-04-01T13:00:14.363Z,4.10
2019-04-01T13:05:23.437Z,4.15
2019-04-01T13:10:33.133Z,4.11
2019-04-01T13:15:42.202Z,3.95
2019-04-01T13:20:51.845Z,4.62
2019-04-01T13:25:59.947Z,4.72
2019-04-01T13:31:09.257Z,5.22
2019-04-01T13:36:18.318Z,4.71
2019-04-01T13:41:41.485Z,4.53
2019-04-01T13:46:36.350Z,4.60
2019-04-01T13:51:45.547Z,4.15
2019-04-01T13:56:54.624Z,3.89
2019-04-01T14:02:03.711Z,3.41
2019-04-01T14:07:12.898Z,2.84
2019-04-01T14:12:22.286Z,3.26
2019-04-01T14:17:31.380Z,4.34
2019-04-01T14:22:43.983Z,4.27
2019-04-01T14:27:49.529Z,4.91
2019-04-01T14:32:58.693Z,4.88
2019-04-01T14:38:07.773Z,5.27
2019-04-01T14:43:16.974Z,4.57
2019-04-01T14:48:26.059Z,5.14
2019-04-01T14:53:35.178Z,4.35
2019-04-01T14:58:44.274Z,4.10
2019-04-01T15:03:53.529Z,4.31
2019-04-01T15:09:02.619Z,3.93
2019-04-01T15:14:11.809Z,3.41
2019-04-01T15:19:20.903Z,3.35
2019-04-01T15:24:30.122Z,2.98
2019-04-01T15:29:39.533Z,3.34
2019-04-01T15:34:48.777Z,2.70
2019-04-01T15:39:57.846Z,3.39
2019-04-01T15:45:07.058Z,2.88
2019-04-01T15:50:27.814Z,2.63
2019-04-01T15:55:24.702Z,2.22
2019-04-01T16:00:33.773Z,2.11
2019-04-01T16:05:42.978Z,1.77
2019-04-01T16:10:52.069Z,1.61
2019-04-01T16:16:01.211Z,1.54
2019-04-01T16:21:10.281Z,1.71
2019-04-01T16:26:19.578Z,1.65
2019-04-01T16:31:28.581Z,1.70
2019-04-01T16:36:37.718Z,1.91
2019-04-01T16:41:50.076Z,1.61
2019-04-01T16:46:55.454Z,1.68
2019-04-01T16:52:04.637Z,1.77
2019-04-01T16:57:14.062Z,1.78
2019-04-01T17:02:23.165Z,1.82
2019-04-01T17:07:32.602Z,1.96
2019-04-01T17:12:41.701Z,1.75
2019-04-01T17:17:50.891Z,2.08
2019-04-01T17:23:00.954Z,1.85
2019-04-01T17:28:10.072Z,2.05
2019-04-01T17:33:09.095Z,2.21
2019-04-01T17:38:18.304Z,2.19
2019-04-01T17:43:27.383Z,2.38
2019-04-01T17:48:36.581Z,2.04
2019-04-01T17:53:45.671Z,1.93
2019-04-01T17:58:54.946Z,2.43
2019-04-01T18:04:04.014Z,2.83
2019-04-01T18:09:13.227Z,2.60
2019-04-01T18:14:22.318Z,2.50
2019-04-01T18:19:31.601Z,3.12
2019-04-01T18:24:40.677Z,2.87
2019-04-01T18:29:49.826Z,2.65
2019-04-01T18:34:58.883Z,2.44
2019-04-01T18:40:08.028Z,2.34
2019-04-01T18:45:17.126Z,2.39
2019-04-01T18:50:26.326Z,2.16
2019-04-01T18:55:35.410Z,1.64
2019-04-01T19:00:44.542Z,1.42
2019-04-01T19:05:53.632Z,1.65
2019-04-01T19:11:02.881Z,1.29
2019-04-01T19:16:12.956Z,1.53
2019-04-01T19:21:20.687Z,1.79
2019-04-01T19:26:29.751Z,0.97
2019-04-01T19:31:38.972Z,0.65
2019-04-01T19:36:48.382Z,0.82
2019-04-01T19:41:57.772Z,0.85
2019-04-01T19:47:07.075Z,0.99
2019-04-01T19:52:15.512Z,0.97
2019-04-01T19:57:24.601Z,1.05
2019-04-01T20:02:34.311Z,0.83
2019-04-01T20:07:44.180Z,0.71
2019-04-01T20:12:51.094Z,0.38
2019-04-01T20:18:00.146Z,0.35
2019-04-01T20:23:09.281Z,0.58
2019-04-01T20:28:18.338Z,0.87
2019-04-01T20:33:27.494Z,0.45
2019-04-01T20:38:36.555Z,0.38
2019-04-01T20:43:45.682Z,0.43
2019-04-01T20:48:54.767Z,0.85
2019-04-01T20:54:03.898Z,0.62
2019-04-01T20:59:12.978Z,0.88
2019-04-01T21:04:22.129Z,0.47
2019-04-01T21:09:31.213Z,0.61
2019-04-01T21:14:40.534Z,0.63
2019-04-01T21:19:49.613Z,0.65
2019-04-01T21:24:58.749Z,0.52
2019-04-01T21:30:07.833Z,0.57
2019-04-01T21:35:16.983Z,0.61
2019-04-01T21:40:26.070Z,0.50
2019-04-01T21:45:35.345Z,0.57
2019-04-01T21:50:44.433Z,0.57
2019-04-01T21:55:54.148Z,0.54
2019-04-01T22:01:02.195Z,0.59
2019-04-01T22:06:11.954Z,0.55
2019-04-01T22:11:19.926Z,0.55
2019-04-01T22:16:40.815Z,0.50
2019-04-01T22:21:29.830Z,0.44
2019-04-01T22:26:39.070Z,0.59
2019-04-01T22:31:48.106Z,0.42
2019-04-01T22:36:57.217Z,0.88
2019-04-01T22:42:06.266Z,1.53
2019-04-01T22:47:16.553Z,1.43
2019-04-01T22:52:23.946Z,1.02
2019-04-01T22:57:33.057Z,1.59
2019-04-01T23:02:42.406Z,1.90
2019-04-01T23:07:50.794Z,0.94
2019-04-01T23:13:00.914Z,1.04
2019-04-01T23:17:59.998Z,1.51
2019-04-01T23:23:09.051Z,1.45
2019-04-01T23:28:18.211Z,1.02
2019-04-01T23:33:27.242Z,1.13
2019-04-01T23:38:36.651Z,1.22
2019-04-01T23:43:44.979Z,1.05
2019-04-01T23:48:54.091Z,0.98
2019-04-01T23:54:03.178Z,1.24
2019-04-01T23:59:12.332Z,0.92
